Time;durP1;ratioP1;P1;durP2;ratioP2;P2;SDS_P1;SDS_P2;PMS_P1;PMS_P2;Temp;Humidity;BMP_temperature;BMP_pressure;BME280_temperature;BME280_humidity;BME280_pressure;Samples;Min_cycle;Max_cycle;Signal;HPM_P1;HPM_P2
2021/08/29 00:00:13;;;;;;;6.07;5.43;;;;;;;16.95;73.71;101032.56;689697;28;22593;-67
2021/08/29 00:00:34;;;;;;;6.90;5.55;;;;;;;16.95;73.65;101027.09;690534;28;70655;-65
2021/08/29 00:00:56;;;;;;;7.03;5.40;;;;;;;16.95;73.71;101035.28;691944;28;21282;-68
2021/08/29 00:01:17;;;;;;;6.20;5.28;;;;;;;16.95;73.71;101038.03;691377;28;45171;-66
2021/08/29 00:01:38;;;;;;;6.10;5.20;;;;;;;16.95;73.82;101029.84;692400;28;22434;-66
2021/08/29 00:02:00;;;;;;;6.95;5.78;;;;;;;16.96;73.72;101033.41;692418;28;21555;-64
2021/08/29 00:02:21;;;;;;;6.35;5.50;;;;;;;16.95;73.76;101029.84;691280;28;43739;-65
2021/08/29 00:02:42;;;;;;;5.68;5.18;;;;;;;16.96;73.72;101034.25;691331;28;22391;-65
2021/08/29 00:03:04;;;;;;;6.53;5.70;;;;;;;16.95;73.71;101038.03;691945;28;24210;-64
2021/08/29 00:03:26;;;;;;;7.03;5.70;;;;;;;16.96;73.74;101033.41;691076;28;44439;-66
2021/08/29 00:03:47;;;;;;;6.63;5.47;;;;;;;16.95;73.71;101032.56;692200;28;46426;-64
2021/08/29 00:04:08;;;;;;;7.20;5.60;;;;;;;16.95;73.77;101031.75;692753;28;21541;-66
2021/08/29 00:04:30;;;;;;;6.50;5.53;;;;;;;16.94;73.54;101033.59;692077;28;22635;-64
2021/08/29 00:04:51;;;;;;;5.72;5.22;;;;;;;16.93;73.68;101030.06;691731;28;45326;-65
2021/08/29 00:05:12;;;;;;;5.88;5.38;;;;;;;16.94;73.78;101033.59;692533;28;22403;-66
2021/08/29 00:05:33;;;;;;;6.00;5.50;;;;;;;16.93;73.79;101027.31;692625;28;21525;-64
2021/08/29 00:05:55;;;;;;;6.60;5.90;;;;;;;16.92;73.74;101028.34;692242;28;22404;-66
2021/08/29 00:06:16;;;;;;;6.20;5.60;;;;;;;16.93;73.75;101035.50;691496;28;44416;-66
2021/08/29 00:06:37;;;;;;;6.47;5.13;;;;;;;16.93;73.74;101032.78;692977;28;22553;-64
2021/08/29 00:06:59;;;;;;;5.85;5.20;;;;;;;16.93;73.76;101034.69;692791;28;22121;-66
2021/08/29 00:07:20;;;;;;;5.80;5.22;;;;;;;16.92;73.65;101028.34;692034;28;44299;-65
2021/08/29 00:07:42;;;;;;;6.15;5.53;;;;;;;16.93;73.72;101031.94;691942;28;23526;-65
2021/08/29 00:08:03;;;;;;;6.32;5.50;;;;;;;16.93;73.77;101029.22;692880;28;21269;-66
2021/08/29 00:08:25;;;;;;;7.55;5.60;;;;;;;16.93;73.79;101027.31;691787;28;45033;-66
2021/08/29 00:08:46;;;;;;;5.45;4.95;;;;;;;16.92;73.77;101031.09;692172;28;46308;-67
2021/08/29 00:09:09;;;;;;;5.43;4.93;;;;;;;16.92;73.81;101033.00;692478;28;23500;-65
2021/08/29 00:09:30;;;;;;;7.43;5.35;;;;;;;16.92;73.86;101028.34;691704;28;44373;-68
2021/08/29 00:09:55;;;;;;;5.90;5.30;;;;;;;16.92;73.65;101033.00;692756;28;22400;-64
2021/08/29 00:10:16;;;;;;;5.95;5.22;;;;;;;16.92;73.72;101024.81;689055;28;114948;-67
2021/08/29 00:10:37;;;;;;;6.63;5.20;;;;;;;16.92;73.78;101031.09;692615;28;23480;-65
2021/08/29 00:10:58;;;;;;;5.85;5.25;;;;;;;16.93;73.65;101029.22;691866;28;21605;-67
2021/08/29 00:11:19;;;;;;;5.72;5.13;;;;;;;16.93;73.67;101031.94;691612;28;47175;-66
2021/08/29 00:11:41;;;;;;;5.43;4.93;;;;;;;16.93;73.55;101038.22;692991;28;23472;-67
2021/08/29 00:12:03;;;;;;;6.63;5.60;;;;;;;16.93;73.63;101024.59;691715;28;44409;-65
2021/08/29 00:12:25;;;;;;;5.70;5.13;;;;;;;16.93;73.77;101032.78;691865;28;44397;-66
2021/08/29 00:12:46;;;;;;;6.38;5.30;;;;;;;16.92;73.49;101028.34;691566;28;46221;-66
2021/08/29 00:13:08;;;;;;;5.32;4.82;;;;;;;16.94;73.67;101028.16;692754;28;21537;-66
2021/08/29 00:13:29;;;;;;;5.68;5.18;;;;;;;16.92;73.57;101024.81;692085;28;46181;-64
2021/08/29 00:13:50;;;;;;;5.65;5.15;;;;;;;16.92;73.58;101030.25;692945;28;22410;-66
2021/08/29 00:14:12;;;;;;;5.75;4.88;;;;;;;16.90;73.40;101027.75;692482;28;22345;-66
2021/08/29 00:14:34;;;;;;;7.32;5.25;;;;;;;16.91;73.60;101034.88;692968;28;22326;-66
2021/08/29 00:14:55;;;;;;;5.50;5.00;;;;;;;16.90;73.42;101033.19;691819;28;43727;-65
2021/08/29 00:15:16;;;;;;;5.95;5.32;;;;;;;16.91;73.57;101034.03;692507;28;21552;-64
2021/08/29 00:15:38;;;;;;;6.55;5.13;;;;;;;16.90;73.52;101027.75;692562;28;22414;-66
2021/08/29 00:16:00;;;;;;;5.57;4.97;;;;;;;16.90;73.62;101024.19;691655;28;45079;-65
2021/08/29 00:16:21;;;;;;;5.53;5.00;;;;;;;16.90;73.44;101026.91;690641;28;70164;-64
2021/08/29 00:16:42;;;;;;;5.40;4.90;;;;;;;16.90;73.61;101035.09;692553;28;22559;-65
2021/08/29 00:17:03;;;;;;;5.88;5.20;;;;;;;16.89;73.55;101025.22;692953;28;23331;-65
2021/08/29 00:17:25;;;;;;;5.53;5.03;;;;;;;16.89;73.37;101030.69;692569;28;22536;-65
2021/08/29 00:17:46;;;;;;;7.10;5.07;;;;;;;16.89;73.58;101038.88;691143;28;45279;-66
2021/08/29 00:18:08;;;;;;;6.95;4.97;;;;;;;16.87;73.55;101030.06;692791;28;24328;-65
2021/08/29 00:18:29;;;;;;;5.43;4.93;;;;;;;16.87;73.47;101025.44;692931;28;23417;-65
2021/08/29 00:18:50;;;;;;;5.35;4.85;;;;;;;16.89;73.63;101028.78;692895;28;21557;-65
2021/08/29 00:19:12;;;;;;;5.47;4.97;;;;;;;16.89;73.59;101028.78;692658;28;22418;-69
2021/08/29 00:19:33;;;;;;;5.68;4.95;;;;;;;16.88;73.78;101029.00;691593;28;46390;-65
2021/08/29 00:19:54;;;;;;;6.30;5.30;;;;;;;16.88;73.41;101024.41;692407;28;22377;-67
2021/08/29 00:20:15;;;;;;;5.93;5.30;;;;;;;16.88;73.37;101027.13;692506;28;21532;-64
2021/08/29 00:20:36;;;;;;;5.78;5.28;;;;;;;16.88;73.58;101032.59;692759;28;23458;-67
2021/08/29 00:20:58;;;;;;;7.10;5.43;;;;;;;16.88;73.45;101029.00;692191;28;24162;-64
2021/08/29 00:21:20;;;;;;;6.07;5.07;;;;;;;16.87;73.39;101028.16;690297;28;69357;-65
2021/08/29 00:21:41;;;;;;;6.50;5.55;;;;;;;16.88;73.55;101026.25;692815;28;21533;-65
2021/08/29 00:22:03;;;;;;;7.97;5.80;;;;;;;16.88;73.65;101029.00;692878;28;22405;-65
2021/08/29 00:22:24;;;;;;;6.18;5.40;;;;;;;16.87;73.48;101028.16;692190;28;44157;-64
2021/08/29 00:22:45;;;;;;;5.68;5.00;;;;;;;16.87;73.36;101019.16;692686;28;22400;-64
2021/08/29 00:23:06;;;;;;;6.43;5.00;;;;;;;16.87;73.43;101030.06;692940;28;21293;-70
2021/08/29 00:23:28;;;;;;;5.15;4.70;;;;;;;16.87;73.34;101027.34;692672;28;21982;-66
2021/08/29 00:23:49;;;;;;;5.78;5.25;;;;;;;16.84;73.61;101022.28;691933;28;44099;-65
2021/08/29 00:24:12;;;;;;;6.25;5.13;;;;;;;16.84;73.50;101025.81;692312;28;23481;-67
2021/08/29 00:24:33;;;;;;;5.88;5.13;;;;;;;16.85;73.29;101026.66;691036;28;69448;-64
2021/08/29 00:24:55;;;;;;;5.43;4.95;;;;;;;16.84;73.31;101031.28;692726;28;22203;-64
2021/08/29 00:25:16;;;;;;;6.05;5.13;;;;;;;16.84;73.49;101025.00;691624;28;47602;-65
2021/08/29 00:25:37;;;;;;;5.50;4.97;;;;;;;16.84;73.36;101022.28;692574;28;21157;-65
2021/08/29 00:25:59;;;;;;;6.50;5.22;;;;;;;16.84;73.40;101030.47;692319;28;22408;-69
2021/08/29 00:26:21;;;;;;;6.43;5.00;;;;;;;16.83;73.30;101023.31;692810;28;22417;-66
2021/08/29 00:26:43;;;;;;;5.90;5.25;;;;;;;16.83;73.54;101032.31;691292;28;67512;-67
2021/08/29 00:27:04;;;;;;;5.45;4.95;;;;;;;16.82;73.37;101019.75;692466;28;22396;-65
2021/08/29 00:27:25;;;;;;;5.78;5.28;;;;;;;16.82;73.30;101027.94;691663;28;45265;-65
2021/08/29 00:27:47;;;;;;;5.60;5.10;;;;;;;16.83;73.48;101021.41;691173;28;23498;-64
2021/08/29 00:28:08;;;;;;;5.32;4.82;;;;;;;16.82;73.40;101030.66;688564;28;46426;-65
2021/08/29 00:28:29;;;;;;;5.15;4.68;;;;;;;16.82;73.37;101019.75;689929;28;22404;-66
2021/08/29 00:28:50;;;;;;;5.70;5.15;;;;;;;16.82;73.50;101021.63;689987;28;23495;-65
2021/08/29 00:29:11;;;;;;;5.55;5.05;;;;;;;16.81;73.54;101028.97;690233;28;23344;-64
2021/08/29 00:29:34;;;;;;;5.30;4.80;;;;;;;16.81;73.49;101019.97;692420;28;22427;-67
2021/08/29 00:29:55;;;;;;;5.55;5.05;;;;;;;16.82;73.60;101018.91;691648;28;46300;-66
2021/08/29 00:30:16;;;;;;;6.15;5.15;;;;;;;16.82;73.71;101021.63;692099;28;22496;-64
2021/08/29 00:30:37;;;;;;;5.47;4.88;;;;;;;16.81;73.63;101017.25;691859;28;45077;-64
2021/08/29 00:30:58;;;;;;;5.15;4.75;;;;;;;16.81;73.72;101011.78;691914;28;23444;-64
2021/08/29 00:31:20;;;;;;;5.28;4.78;;;;;;;16.80;73.47;101019.09;692164;28;23441;-64
2021/08/29 00:31:41;;;;;;;5.53;5.03;;;;;;;16.82;73.71;101021.63;691541;28;46332;-64
2021/08/29 00:32:03;;;;;;;5.80;5.20;;;;;;;16.81;73.72;101020.78;692564;28;22174;-64
2021/08/29 00:32:24;;;;;;;5.53;5.03;;;;;;;16.82;73.61;101022.47;689534;28;46704;-64
2021/08/29 00:32:46;;;;;;;5.50;4.90;;;;;;;16.82;73.55;101018.91;690042;28;1455;-67
2021/08/29 00:33:07;;;;;;;7.15;4.90;;;;;;;16.81;73.77;101012.63;687576;28;44315;-64
2021/08/29 00:33:28;;;;;;;6.70;4.80;;;;;;;16.81;73.68;101015.34;689724;28;22398;-67
2021/08/29 00:33:50;;;;;;;5.15;4.65;;;;;;;16.82;73.74;101013.44;689682;28;21535;-63
2021/08/29 00:34:12;;;;;;;7.57;5.28;;;;;;;16.81;73.94;101022.69;688903;28;23302;-66
2021/08/29 00:34:33;;;;;;;6.90;4.80;;;;;;;16.81;73.74;101011.78;691056;28;45262;-65
2021/08/29 00:34:54;;;;;;;5.22;4.72;;;;;;;16.80;73.83;101019.09;692664;28;23409;-64
2021/08/29 00:35:15;;;;;;;5.32;4.72;;;;;;;16.81;73.77;101019.97;689470;28;22420;-65
2021/08/29 00:35:37;;;;;;;5.50;4.93;;;;;;;16.79;73.68;101014.72;686797;28;21296;-64
2021/08/29 00:35:58;;;;;;;7.05;4.75;;;;;;;16.78;73.72;101007.59;682860;28;46343;-64
2021/08/29 00:36:20;;;;;;;5.65;4.85;;;;;;;16.80;73.80;101018.28;683306;28;45401;-64
2021/08/29 00:36:41;;;;;;;5.38;4.88;;;;;;;16.79;73.81;101014.72;686950;28;22385;-69
2021/08/29 00:37:05;;;;;;;6.15;5.43;;;;;;;16.79;73.89;101012.00;688002;28;1126;-66
2021/08/29 00:37:26;;;;;;;5.53;5.03;;;;;;;16.74;73.80;101011.81;687222;28;92296;-66
2021/08/29 00:37:47;;;;;;;5.47;4.97;;;;;;;16.78;73.80;101010.31;689401;28;24338;-67
2021/08/29 00:38:08;;;;;;;5.60;5.00;;;;;;;16.79;74.07;101014.72;692106;28;22205;-65
2021/08/29 00:38:30;;;;;;;5.10;4.70;;;;;;;16.78;74.01;101015.75;692708;28;23431;-66
2021/08/29 00:38:51;;;;;;;5.40;4.90;;;;;;;16.79;73.99;101014.72;691217;28;44398;-65
2021/08/29 00:39:14;;;;;;;5.35;4.85;;;;;;;16.78;74.02;101015.75;693718;28;22610;-72
2021/08/29 00:39:35;;;;;;;5.80;4.93;;;;;;;16.80;74.15;101015.56;691899;28;67494;-69
2021/08/29 00:39:57;;;;;;;5.55;5.00;;;;;;;16.80;74.10;101021.00;694285;28;23398;-64
2021/08/29 00:40:18;;;;;;;5.10;4.70;;;;;;;16.77;73.87;101014.09;692378;28;46305;-64
2021/08/29 00:40:39;;;;;;;5.18;4.75;;;;;;;16.79;74.02;101022.06;694522;28;22252;-64
2021/08/29 00:41:01;;;;;;;6.10;4.93;;;;;;;16.79;73.96;101022.91;691258;28;46362;-66
2021/08/29 00:41:23;;;;;;;5.75;4.75;;;;;;;16.79;74.04;101017.44;692067;28;23500;-64
2021/08/29 00:41:44;;;;;;;6.45;4.97;;;;;;;16.78;74.07;101014.94;688622;28;45300;-64
2021/08/29 00:42:06;;;;;;;5.22;4.80;;;;;;;16.77;74.16;101016.84;686533;28;21118;-67
2021/08/29 00:42:27;;;;;;;5.60;5.10;;;;;;;16.75;74.04;101013.47;685298;28;46411;-67
2021/08/29 00:42:50;;;;;;;5.50;5.00;;;;;;;16.76;74.23;101015.97;684245;28;23291;-64
2021/08/29 00:43:11;;;;;;;6.05;5.25;;;;;;;16.75;74.18;101014.31;682637;28;67503;-68
2021/08/29 00:43:32;;;;;;;5.40;4.90;;;;;;;16.75;74.10;101013.47;685070;28;23286;-65
2021/08/29 00:43:53;;;;;;;5.07;4.65;;;;;;;16.75;74.10;101013.47;684830;28;22401;-67
2021/08/29 00:44:16;;;;;;;5.00;4.50;;;;;;;16.76;74.18;101012.41;683920;28;22392;-66
2021/08/29 00:44:37;;;;;;;5.45;4.95;;;;;;;16.76;74.14;101017.88;681398;28;46354;-65
2021/08/29 00:44:58;;;;;;;5.50;5.00;;;;;;;16.75;74.27;101021.63;683470;28;45286;-65
2021/08/29 00:45:20;;;;;;;6.57;5.10;;;;;;;16.76;74.24;101017.88;684942;28;23476;-66
2021/08/29 00:45:43;;;;;;;5.57;5.05;;;;;;;16.76;74.15;101012.41;683193;28;45243;-65
2021/08/29 00:46:06;;;;;;;6.35;5.13;;;;;;;16.74;74.34;101014.53;687009;28;44374;-65
2021/08/29 00:46:27;;;;;;;5.70;5.10;;;;;;;16.74;74.25;101014.53;688960;28;69475;-65
2021/08/29 00:46:48;;;;;;;5.22;4.72;;;;;;;16.74;74.20;101018.09;692708;28;22412;-65
2021/08/29 00:47:09;;;;;;;7.13;4.88;;;;;;;16.75;74.24;101018.91;687231;28;46356;-68
2021/08/29 00:47:31;;;;;;;5.28;4.78;;;;;;;16.73;74.16;101007.38;686464;28;22413;-65
2021/08/29 00:47:53;;;;;;;5.57;5.07;;;;;;;16.74;74.13;101020.81;687621;28;46288;-65
2021/08/29 00:48:14;;;;;;;5.50;5.00;;;;;;;16.74;74.35;101014.53;687093;28;23419;-66
2021/08/29 00:48:35;;;;;;;5.32;4.82;;;;;;;16.74;74.23;101017.25;686116;28;46339;-67
2021/08/29 00:48:57;;;;;;;5.70;5.20;;;;;;;16.73;74.37;101019.13;687566;28;23485;-66
2021/08/29 00:49:19;;;;;;;5.57;4.97;;;;;;;16.73;74.28;101013.66;688611;28;45288;-65
2021/08/29 00:49:41;;;;;;;5.32;4.82;;;;;;;16.73;74.43;101008.22;686050;28;45251;-65
2021/08/29 00:50:03;;;;;;;5.30;4.80;;;;;;;16.74;74.30;101017.25;683067;28;44389;-65
2021/08/29 00:50:27;;;;;;;5.22;4.65;;;;;;;16.74;74.50;101012.63;685135;28;46691;-65
2021/08/29 00:50:48;;;;;;;5.55;5.00;;;;;;;16.74;74.43;101014.53;681145;28;91203;-65
2021/08/29 00:51:12;;;;;;;5.70;5.20;;;;;;;16.73;74.43;101013.66;684112;28;45252;-65
2021/08/29 00:51:33;;;;;;;5.50;5.00;;;;;;;16.73;74.35;101016.41;684388;28;46437;-66
2021/08/29 00:51:56;;;;;;;5.85;5.00;;;;;;;16.73;74.29;101010.94;684472;28;44442;-65
2021/08/29 00:52:18;;;;;;;5.65;5.13;;;;;;;16.72;74.47;101013.88;682533;28;67532;-66
2021/08/29 00:52:40;;;;;;;5.53;5.03;;;;;;;16.72;74.49;101012.00;681274;28;46345;-67
2021/08/29 00:53:04;;;;;;;5.53;5.03;;;;;;;16.72;74.47;101011.16;681017;29;44470;-66
2021/08/29 00:53:26;;;;;;;6.43;4.90;;;;;;;16.73;74.29;101015.56;679092;29;92262;-70
2021/08/29 00:53:48;;;;;;;5.95;5.00;;;;;;;16.72;74.43;101009.28;681338;28;45003;-66
2021/08/29 00:54:10;;;;;;;5.15;4.68;;;;;;;16.71;74.48;101013.03;684489;28;23453;-65
2021/08/29 00:54:33;;;;;;;5.50;5.00;;;;;;;16.71;74.38;101015.78;684359;28;46318;-65
2021/08/29 00:54:56;;;;;;;5.85;5.18;;;;;;;16.71;74.32;101006.75;684792;28;115105;-66
2021/08/29 00:55:21;;;;;;;5.57;5.05;;;;;;;16.71;74.37;101014.94;683403;28;115909;-65
2021/08/29 00:55:48;;;;;;;5.00;4.60;;;;;;;16.71;74.42;101015.78;682572;28;137202;-66
2021/08/29 00:56:10;;;;;;;7.07;5.10;;;;;;;16.70;74.49;101011.38;682084;28;69266;-66
2021/08/29 00:56:31;;;;;;;6.82;5.30;;;;;;;16.70;74.37;101014.09;681801;29;23462;-64
2021/08/29 00:56:53;;;;;;;6.00;5.13;;;;;;;16.71;74.50;101012.22;681412;28;69783;-66
2021/08/29 00:57:16;;;;;;;5.55;5.05;;;;;;;16.71;74.59;101009.50;679701;29;44363;-65
2021/08/29 00:57:44;;;;;;;5.00;4.60;;;;;;;16.69;74.56;101009.72;675911;28;137733;-69
2021/08/29 00:58:07;;;;;;;5.78;5.18;;;;;;;16.70;74.54;101011.38;678180;28;69414;-65
2021/08/29 00:58:30;;;;;;;6.30;5.30;;;;;;;16.70;74.44;101014.09;679836;29;46332;-65
2021/08/29 00:58:52;;;;;;;5.68;5.10;;;;;;;16.70;74.42;101011.38;679452;29;67491;-67
2021/08/29 00:59:13;;;;;;;5.60;5.10;;;;;;;16.68;74.65;101004.47;680832;29;22441;-65
2021/08/29 00:59:36;;;;;;;5.18;4.65;;;;;;;16.67;74.52;101009.06;681146;28;46609;-65
2021/08/29 00:59:58;;;;;;;6.93;5.15;;;;;;;16.68;74.50;101010.75;684629;28;46375;-65
2021/08/29 01:00:19;;;;;;;6.03;5.10;;;;;;;16.66;74.42;101018.31;683050;28;46418;-65
2021/08/29 01:00:46;;;;;;;5.85;5.25;;;;;;;16.67;74.57;101024.59;681408;28;137868;-67
2021/08/29 01:01:08;;;;;;;5.40;4.90;;;;;;;16.66;74.56;101022.91;682840;28;46334;-64
2021/08/29 01:01:39;;;;;;;4.97;4.55;;;;;;;16.66;74.51;101017.44;681342;28;137955;-68
2021/08/29 01:02:03;;;;;;;5.57;5.07;;;;;;;16.65;74.48;101023.97;682218;28;137784;-66
2021/08/29 01:02:25;;;;;;;5.30;4.80;;;;;;;16.64;74.63;101023.09;682971;28;90223;-65
2021/08/29 01:02:49;;;;;;;5.43;4.80;;;;;;;16.64;74.47;101009.47;686012;28;92265;-66
2021/08/29 01:03:15;;;;;;;5.57;4.95;;;;;;;16.64;74.68;101020.38;683628;28;69535;-65
2021/08/29 01:03:38;;;;;;;4.97;4.57;;;;;;;16.64;74.53;101020.38;682013;28;160545;-65
2021/08/29 01:04:05;;;;;;;6.57;4.80;;;;;;;16.64;74.66;101025.00;685668;28;67240;-68
2021/08/29 01:04:29;;;;;;;7.47;4.90;;;;;;;16.62;74.36;101017.03;682135;28;138406;-68
2021/08/29 01:04:57;;;;;;;7.30;4.78;;;;;;;16.64;74.43;101011.38;682918;28;138972;-64
2021/08/29 01:05:24;;;;;;;5.95;5.00;;;;;;;16.63;74.58;101024.19;682415;28;138060;-64
2021/08/29 01:06:08;;;;;;;5.47;4.70;;;;;;;16.61;74.70;101020.81;683625;28;137724;-66
2021/08/29 01:06:47;;;;;;;5.10;4.70;;;;;;;16.60;74.69;101010.97;685199;28;137335;-69
2021/08/29 01:07:22;;;;;;;5.18;4.72;;;;;;;16.58;74.68;101011.19;684750;28;158710;-67
2021/08/29 01:07:52;;;;;;;5.82;4.90;;;;;;;16.61;74.64;101019.97;682691;28;91376;-65
2021/08/29 01:08:16;;;;;;;4.93;4.47;;;;;;;16.61;74.65;101019.97;685364;28;137841;-65
2021/08/29 01:08:41;;;;;;;5.28;4.78;;;;;;;16.61;74.73;101019.97;684146;28;137822;-67
2021/08/29 01:09:06;;;;;;;5.60;5.05;;;;;;;16.59;74.77;101017.47;685799;28;45320;-66
2021/08/29 01:09:29;;;;;;;6.83;4.87;;;;;;;16.62;74.84;101017.03;678943;28;137334;-68
2021/08/29 01:09:55;;;;;;;5.95;4.60;;;;;;;16.60;74.77;101012.84;685543;28;32355;-68
2021/08/29 01:10:26;;;;;;;6.03;4.85;;;;;;;16.62;74.65;101016.22;681966;28;136388;-68
2021/08/29 01:10:54;;;;;;;6.93;5.18;;;;;;;16.63;74.83;101009.69;682548;28;136304;-67
2021/08/29 01:11:18;;;;;;;5.65;5.15;;;;;;;16.62;74.70;101008.03;679552;28;138163;-64
2021/08/29 01:11:43;;;;;;;5.82;4.85;;;;;;;16.63;74.78;101010.53;681340;28;90392;-64
2021/08/29 01:12:06;;;;;;;6.40;5.07;;;;;;;16.61;74.83;101009.06;678577;28;115717;-65
2021/08/29 01:12:50;;;;;;;5.20;4.63;;;;;;;16.64;74.72;101020.38;683495;28;58995;-65
2021/08/29 01:13:13;;;;;;;5.47;4.97;;;;;;;16.65;74.71;101021.25;681964;28;138262;-65
2021/08/29 01:13:37;;;;;;;5.82;5.22;;;;;;;16.63;74.62;101018.72;686083;28;67479;-65
2021/08/29 01:14:01;;;;;;;5.70;5.15;;;;;;;16.64;74.62;101019.56;685220;28;92293;-64
2021/08/29 01:14:25;;;;;;;5.68;5.05;;;;;;;16.63;74.70;101012.41;686274;28;92294;-65
2021/08/29 01:14:48;;;;;;;5.32;4.82;;;;;;;16.62;74.65;101022.50;686433;28;90190;-64
2021/08/29 01:15:10;;;;;;;5.85;5.32;;;;;;;16.62;74.71;101008.03;685318;28;69452;-64
2021/08/29 01:15:37;;;;;;;6.75;5.28;;;;;;;16.58;74.77;101010.31;682353;28;136266;-66
2021/08/29 01:16:02;;;;;;;5.20;4.70;;;;;;;16.61;74.69;101014.53;687245;28;45287;-65
2021/08/29 01:16:29;;;;;;;5.75;4.95;;;;;;;16.62;74.87;101016.22;684074;28;137818;-69
2021/08/29 01:16:57;;;;;;;5.45;4.88;;;;;;;16.61;74.71;101017.25;682220;28;137834;-64
2021/08/29 01:17:21;;;;;;;6.40;5.18;;;;;;;16.62;74.71;101016.22;686626;28;92292;-64
2021/08/29 01:17:46;;;;;;;8.10;4.78;;;;;;;16.62;74.73;101010.75;680895;28;114785;-64
2021/08/29 01:18:07;;;;;;;5.57;5.07;;;;;;;16.62;74.92;101010.75;683780;28;69416;-64
2021/08/29 01:18:29;;;;;;;5.70;5.18;;;;;;;16.61;74.83;101009.91;684778;28;46410;-64
2021/08/29 01:18:54;;;;;;;7.97;4.68;;;;;;;16.62;75.01;101018.94;681759;28;92332;-64
2021/08/29 01:19:17;;;;;;;6.18;4.53;;;;;;;16.61;75.01;101017.25;682878;28;69419;-64
2021/08/29 01:19:57;;;;;;;5.22;4.82;;;;;;;16.60;74.96;101016.41;681486;28;137565;-66
2021/08/29 01:20:23;;;;;;;5.28;4.78;;;;;;;16.60;74.98;101013.69;683439;28;137878;-64
2021/08/29 01:20:54;;;;;;;5.43;4.93;;;;;;;16.60;74.85;101018.28;685017;28;136107;-66
2021/08/29 01:21:19;;;;;;;5.10;4.60;;;;;;;16.60;74.75;101019.16;682347;28;160890;-67
2021/08/29 01:21:42;;;;;;;5.10;4.55;;;;;;;16.61;74.95;101017.25;681705;28;90758;-67
2021/08/29 01:22:08;;;;;;;5.28;4.68;;;;;;;16.62;74.86;101008.03;681788;28;118200;-67
2021/08/29 01:22:31;;;;;;;6.30;4.80;;;;;;;16.60;74.92;101016.41;681589;28;69451;-65
2021/08/29 01:22:53;;;;;;;5.13;4.63;;;;;;;16.61;74.90;101015.34;684734;28;92291;-65
2021/08/29 01:23:14;;;;;;;5.25;4.75;;;;;;;16.63;75.01;101017.88;686107;28;21302;-64
2021/08/29 01:23:40;;;;;;;5.50;5.00;;;;;;;16.62;74.95;101021.66;686910;28;69321;-66
2021/08/29 01:24:03;;;;;;;5.57;5.07;;;;;;;16.61;74.95;101015.34;683894;28;92298;-67
2021/08/29 01:24:26;;;;;;;5.53;4.80;;;;;;;16.62;74.76;101016.22;685732;28;92107;-65
2021/08/29 01:24:52;;;;;;;5.07;4.57;;;;;;;16.63;74.71;101023.31;683759;28;115169;-64
2021/08/29 01:25:21;;;;;;;5.65;5.05;;;;;;;16.61;74.82;101018.06;679811;28;93043;-64
2021/08/29 01:25:47;;;;;;;5.67;5.07;;;;;;;16.61;74.71;101019.97;679331;28;138008;-64
2021/08/29 01:26:13;;;;;;;5.82;5.07;;;;;;;16.59;74.89;101014.72;682619;28;138099;-64
2021/08/29 01:26:40;;;;;;;6.38;5.35;;;;;;;16.58;74.95;101013.91;681047;28;114973;-66
2021/08/29 01:27:08;;;;;;;7.22;5.40;;;;;;;16.57;74.98;101019.56;679794;28;160772;-65
2021/08/29 01:27:34;;;;;;;5.70;4.93;;;;;;;16.55;74.75;101011.59;682916;28;138187;-64
2021/08/29 01:27:58;;;;;;;5.57;5.07;;;;;;;16.55;74.84;101013.47;682118;28;137841;-65
2021/08/29 01:28:24;;;;;;;6.13;5.20;;;;;;;16.53;74.85;101013.66;683650;28;90589;-64
2021/08/29 01:28:57;;;;;;;5.70;5.05;;;;;;;16.50;74.81;101014.09;680198;28;138965;-67
2021/08/29 01:29:22;;;;;;;6.63;5.60;;;;;;;16.50;75.10;101007.81;683571;28;137119;-65
2021/08/29 01:29:43;;;;;;;6.30;5.55;;;;;;;16.49;75.03;101017.03;685128;28;92275;-64
2021/08/29 01:30:07;;;;;;;5.82;5.20;;;;;;;16.49;75.17;101014.28;688699;28;45023;-66
2021/08/29 01:30:28;;;;;;;5.90;5.40;;;;;;;16.48;75.06;101013.47;683614;28;69478;-64
2021/08/29 01:30:50;;;;;;;8.25;5.47;;;;;;;16.46;75.14;101014.75;688472;28;23426;-63
2021/08/29 01:31:13;;;;;;;6.55;5.70;;;;;;;16.46;75.16;101018.31;686341;28;68407;-64
2021/08/29 01:31:35;;;;;;;5.85;5.30;;;;;;;16.45;75.31;101013.06;682121;28;42710;-63
2021/08/29 01:31:58;;;;;;;5.78;5.28;;;;;;;16.44;75.34;101014.09;680809;28;69160;-65
2021/08/29 01:32:20;;;;;;;6.18;5.60;;;;;;;16.43;75.27;101015.16;682814;28;45242;-64
2021/08/29 01:32:48;;;;;;;7.68;5.78;;;;;;;16.42;75.25;101008.84;679142;28;137943;-66
2021/08/29 01:33:10;;;;;;;5.82;5.22;;;;;;;16.42;75.36;101011.56;680347;28;69687;-66
2021/08/29 01:33:42;;;;;;;6.20;5.18;;;;;;;16.42;75.51;101016.19;683445;28;137175;-65
2021/08/29 01:34:09;;;;;;;6.05;5.45;;;;;;;16.39;75.53;101012.00;684053;28;114477;-66
2021/08/29 01:34:35;;;;;;;6.88;5.28;;;;;;;16.39;75.45;101017.44;681910;28;138964;-64
2021/08/29 01:35:17;;;;;;;6.70;5.95;;;;;;;16.36;75.64;101013.28;678564;28;137529;-67
2021/08/29 01:35:58;;;;;;;7.35;6.00;;;;;;;16.36;75.59;101013.28;681301;28;137858;-67
2021/08/29 01:36:20;;;;;;;7.13;5.80;;;;;;;16.37;75.73;101014.94;688840;28;44412;-67
2021/08/29 01:36:43;;;;;;;6.03;5.43;;;;;;;16.38;75.62;101015.78;685916;28;45221;-66
2021/08/29 01:37:11;;;;;;;5.90;5.38;;;;;;;16.36;75.76;101009.69;681457;28;80813;-64
2021/08/29 01:37:33;;;;;;;6.03;5.50;;;;;;;16.38;75.74;101018.50;678667;28;69490;-72
2021/08/29 01:37:55;;;;;;;5.80;5.30;;;;;;;16.36;75.83;101010.53;681273;28;46432;-64
2021/08/29 01:38:16;;;;;;;6.13;5.53;;;;;;;16.36;75.60;101017.88;684069;28;22411;-65
2021/08/29 01:38:39;;;;;;;6.03;5.43;;;;;;;16.37;75.78;101014.09;683826;28;44039;-64
2021/08/29 01:39:01;;;;;;;6.00;5.50;;;;;;;16.36;75.77;101017.88;684230;28;46357;-64
2021/08/29 01:39:23;;;;;;;5.80;5.30;;;;;;;16.35;75.82;101018.94;683059;28;69425;-65
2021/08/29 01:39:48;;;;;;;6.00;5.40;;;;;;;16.34;75.83;101011.78;681575;28;92155;-64
2021/08/29 01:40:17;;;;;;;6.15;5.55;;;;;;;16.36;75.69;101015.13;676814;29;137710;-65
2021/08/29 01:40:41;;;;;;;5.85;5.15;;;;;;;16.33;75.98;101008.25;683309;28;33362;-64
2021/08/29 01:41:02;;;;;;;7.15;5.00;;;;;;;16.35;75.92;101017.03;681362;28;92110;-65
2021/08/29 01:41:24;;;;;;;5.63;5.13;;;;;;;16.35;75.93;101010.75;685820;28;45059;-65
2021/08/29 01:41:49;;;;;;;5.75;5.18;;;;;;;16.35;75.92;101017.03;684943;28;45276;-64
2021/08/29 01:42:10;;;;;;;6.20;5.40;;;;;;;16.34;75.91;101019.97;683902;28;113585;-65
2021/08/29 01:42:32;;;;;;;6.10;5.50;;;;;;;16.33;75.91;101016.41;685509;28;22423;-65
2021/08/29 01:42:59;;;;;;;7.20;5.68;;;;;;;16.33;75.84;101016.41;681575;28;137866;-67
2021/08/29 01:43:20;;;;;;;5.65;5.10;;;;;;;16.33;75.90;101012.84;682622;28;69484;-64
2021/08/29 01:43:42;;;;;;;5.80;5.20;;;;;;;16.33;75.96;101023.72;685706;28;21530;-65
2021/08/29 01:44:05;;;;;;;5.80;5.30;;;;;;;16.32;76.16;101019.34;685460;28;46394;-64
2021/08/29 01:44:29;;;;;;;5.65;5.15;;;;;;;16.31;75.96;101018.50;682518;28;114530;-65
2021/08/29 01:44:51;;;;;;;6.07;5.43;;;;;;;16.31;75.90;101021.22;683533;28;47325;-64
2021/08/29 01:45:12;;;;;;;6.13;5.53;;;;;;;16.31;76.06;101012.22;683147;28;45236;-65
2021/08/29 01:45:38;;;;;;;5.65;5.07;;;;;;;16.31;76.18;101021.22;677291;28;136541;-64
2021/08/29 01:46:00;;;;;;;5.68;5.13;;;;;;;16.30;76.03;101014.09;678862;29;47070;-64
2021/08/29 01:46:23;;;;;;;5.55;5.05;;;;;;;16.31;76.03;101018.50;681208;28;69429;-64
2021/08/29 01:46:57;;;;;;;7.32;5.57;;;;;;;16.32;76.19;101013.91;680116;28;138559;-66
2021/08/29 01:47:19;;;;;;;5.72;5.18;;;;;;;16.30;76.08;101022.28;683419;28;44380;-64
2021/08/29 01:47:42;;;;;;;7.28;5.35;;;;;;;16.33;76.24;101015.56;681528;28;92669;-64
2021/08/29 01:48:05;;;;;;;5.30;4.85;;;;;;;16.32;76.18;101016.63;685825;28;45233;-65
2021/08/29 01:48:39;;;;;;;5.85;5.18;;;;;;;16.31;75.92;101013.03;679916;28;137965;-64
2021/08/29 01:49:05;;;;;;;5.10;4.70;;;;;;;16.31;76.26;101015.75;680981;28;137771;-67
2021/08/29 01:49:27;;;;;;;6.00;5.50;;;;;;;16.32;76.17;101014.72;683803;28;69284;-65